sensor_id;sensor_type;location;lat;lon;timestamp;P1;durP1;ratioP1;P2;durP2;ratioP2
68812;SDS011;55808;48.112;11.552;2023-02-11T00:01:09;282.00;;;124.05;;
68812;SDS011;55808;48.112;11.552;2023-02-11T00:03:38;258.67;;;115.35;;
68812;SDS011;55808;48.112;11.552;2023-02-11T00:06:05;275.90;;;118.57;;
68812;SDS011;55808;48.112;11.552;2023-02-11T00:08:34;243.52;;;110.03;;
68812;SDS011;55808;48.112;11.552;2023-02-11T00:11:00;258.47;;;114.53;;
68812;SDS011;55808;48.112;11.552;2023-02-11T00:13:25;266.07;;;115.93;;
68812;SDS011;55808;48.112;11.552;2023-02-11T00:15:51;254.17;;;116.50;;
68812;SDS011;55808;48.112;11.552;2023-02-11T00:18:18;252.85;;;113.70;;
68812;SDS011;55808;48.112;11.552;2023-02-11T00:20:44;258.30;;;116.53;;
68812;SDS011;55808;48.112;11.552;2023-02-11T00:23:10;277.17;;;118.47;;
68812;SDS011;55808;48.112;11.552;2023-02-11T00:25:43;251.73;;;112.43;;
68812;SDS011;55808;48.112;11.552;2023-02-11T00:28:09;258.88;;;110.45;;
68812;SDS011;55808;48.112;11.552;2023-02-11T00:30:36;245.52;;;112.45;;
68812;SDS011;55808;48.112;11.552;2023-02-11T00:33:02;281.50;;;117.55;;
68812;SDS011;55808;48.112;11.552;2023-02-11T00:35:28;244.52;;;111.50;;
68812;SDS011;55808;48.112;11.552;2023-02-11T00:37:54;257.27;;;114.60;;
68812;SDS011;55808;48.112;11.552;2023-02-11T00:40:20;252.77;;;115.75;;
68812;SDS011;55808;48.112;11.552;2023-02-11T00:42:46;267.60;;;119.60;;
68812;SDS011;55808;48.112;11.552;2023-02-11T00:45:12;260.07;;;115.23;;
68812;SDS011;55808;48.112;11.552;2023-02-11T00:47:38;265.30;;;114.93;;
68812;SDS011;55808;48.112;11.552;2023-02-11T00:50:03;247.93;;;113.33;;
68812;SDS011;55808;48.112;11.552;2023-02-11T00:52:30;245.98;;;111.85;;
68812;SDS011;55808;48.112;11.552;2023-02-11T00:54:56;246.00;;;112.63;;
68812;SDS011;55808;48.112;11.552;2023-02-11T00:57:22;247.77;;;113.13;;
68812;SDS011;55808;48.112;11.552;2023-02-11T00:59:47;267.23;;;114.60;;
68812;SDS011;55808;48.112;11.552;2023-02-11T01:02:14;295.67;;;122.45;;
68812;SDS011;55808;48.112;11.552;2023-02-11T01:04:40;309.95;;;123.90;;
68812;SDS011;55808;48.112;11.552;2023-02-11T01:07:06;297.83;;;121.70;;
68812;SDS011;55808;48.112;11.552;2023-02-11T01:09:32;285.83;;;119.97;;
68812;SDS011;55808;48.112;11.552;2023-02-11T01:11:58;307.17;;;124.07;;
68812;SDS011;55808;48.112;11.552;2023-02-11T01:14:23;271.57;;;119.07;;
68812;SDS011;55808;48.112;11.552;2023-02-11T01:16:49;286.60;;;120.10;;
68812;SDS011;55808;48.112;11.552;2023-02-11T01:19:14;262.07;;;117.33;;
68812;SDS011;55808;48.112;11.552;2023-02-11T01:21:40;265.40;;;116.07;;
68812;SDS011;55808;48.112;11.552;2023-02-11T01:24:06;256.57;;;114.77;;
68812;SDS011;55808;48.112;11.552;2023-02-11T01:26:31;274.03;;;118.77;;
68812;SDS011;55808;48.112;11.552;2023-02-11T01:28:57;272.33;;;116.07;;
68812;SDS011;55808;48.112;11.552;2023-02-11T01:31:24;263.92;;;114.22;;
68812;SDS011;55808;48.112;11.552;2023-02-11T01:33:50;253.18;;;114.93;;
68812;SDS011;55808;48.112;11.552;2023-02-11T01:36:16;278.97;;;119.53;;
68812;SDS011;55808;48.112;11.552;2023-02-11T01:38:42;263.60;;;116.80;;
68812;SDS011;55808;48.112;11.552;2023-02-11T01:41:09;267.52;;;119.38;;
68812;SDS011;55808;48.112;11.552;2023-02-11T01:43:38;259.27;;;115.15;;
68812;SDS011;55808;48.112;11.552;2023-02-11T01:48:52;262.20;;;116.15;;
68812;SDS011;55808;48.112;11.552;2023-02-11T01:51:39;243.68;;;111.32;;
68812;SDS011;55808;48.112;11.552;2023-02-11T01:54:13;275.08;;;115.97;;
68812;SDS011;55808;48.112;11.552;2023-02-11T01:57:00;282.00;;;119.82;;
68812;SDS011;55808;48.112;11.552;2023-02-11T02:02:12;276.77;;;116.00;;
68812;SDS011;55808;48.112;11.552;2023-02-11T02:07:35;249.70;;;114.95;;
68812;SDS011;55808;48.112;11.552;2023-02-11T02:10:11;259.88;;;116.97;;
68812;SDS011;55808;48.112;11.552;2023-02-11T02:12:42;252.77;;;111.70;;
68812;SDS011;55808;48.112;11.552;2023-02-11T02:18:05;281.85;;;118.43;;
68812;SDS011;55808;48.112;11.552;2023-02-11T02:37:48;307.27;;;124.32;;
68812;SDS011;55808;48.112;11.552;2023-02-11T02:43:25;276.65;;;118.38;;
68812;SDS011;55808;48.112;11.552;2023-02-11T02:45:52;259.58;;;115.13;;
68812;SDS011;55808;48.112;11.552;2023-02-11T02:48:24;290.08;;;121.40;;
68812;SDS011;55808;48.112;11.552;2023-02-11T02:50:52;241.77;;;110.35;;
68812;SDS011;55808;48.112;11.552;2023-02-11T02:56:04;318.23;;;127.70;;
68812;SDS011;55808;48.112;11.552;2023-02-11T03:04:34;273.60;;;116.30;;
68812;SDS011;55808;48.112;11.552;2023-02-11T03:09:54;286.45;;;118.93;;
68812;SDS011;55808;48.112;11.552;2023-02-11T03:12:26;265.40;;;114.63;;
68812;SDS011;55808;48.112;11.552;2023-02-11T03:14:55;248.05;;;112.50;;
68812;SDS011;55808;48.112;11.552;2023-02-11T03:17:22;236.88;;;112.47;;
68812;SDS011;55808;48.112;11.552;2023-02-11T03:19:49;276.90;;;116.80;;
68812;SDS011;55808;48.112;11.552;2023-02-11T03:22:16;245.13;;;111.65;;
68812;SDS011;55808;48.112;11.552;2023-02-11T03:24:49;232.00;;;108.75;;
68812;SDS011;55808;48.112;11.552;2023-02-11T03:32:35;240.73;;;109.47;;
68812;SDS011;55808;48.112;11.552;2023-02-11T03:35:23;242.88;;;108.45;;
68812;SDS011;55808;48.112;11.552;2023-02-11T03:38:07;233.57;;;107.57;;
68812;SDS011;55808;48.112;11.552;2023-02-11T03:40:38;247.55;;;110.40;;
68812;SDS011;55808;48.112;11.552;2023-02-11T03:43:08;236.48;;;108.38;;
68812;SDS011;55808;48.112;11.552;2023-02-11T03:45:41;240.55;;;109.28;;
68812;SDS011;55808;48.112;11.552;2023-02-11T03:48:25;237.77;;;120.00;;
68812;SDS011;55808;48.112;11.552;2023-02-11T03:50:57;280.13;;;116.35;;
68812;SDS011;55808;48.112;11.552;2023-02-11T03:53:25;243.82;;;111.32;;
68812;SDS011;55808;48.112;11.552;2023-02-11T03:55:51;243.63;;;110.30;;
68812;SDS011;55808;48.112;11.552;2023-02-11T03:58:20;228.75;;;106.00;;
68812;SDS011;55808;48.112;11.552;2023-02-11T04:00:46;216.45;;;104.35;;
68812;SDS011;55808;48.112;11.552;2023-02-11T04:03:12;222.93;;;104.67;;
68812;SDS011;55808;48.112;11.552;2023-02-11T04:05:37;240.97;;;106.57;;
68812;SDS011;55808;48.112;11.552;2023-02-11T04:08:04;239.57;;;108.05;;
68812;SDS011;55808;48.112;11.552;2023-02-11T04:10:29;226.90;;;107.93;;
68812;SDS011;55808;48.112;11.552;2023-02-11T04:12:55;217.10;;;104.90;;
68812;SDS011;55808;48.112;11.552;2023-02-11T04:15:21;218.77;;;105.30;;
68812;SDS011;55808;48.112;11.552;2023-02-11T04:17:46;228.53;;;105.57;;
68812;SDS011;55808;48.112;11.552;2023-02-11T04:20:12;220.07;;;103.67;;
68812;SDS011;55808;48.112;11.552;2023-02-11T04:22:38;225.47;;;105.27;;
68812;SDS011;55808;48.112;11.552;2023-02-11T04:25:04;224.03;;;106.37;;
68812;SDS011;55808;48.112;11.552;2023-02-11T04:27:30;249.02;;;107.68;;
68812;SDS011;55808;48.112;11.552;2023-02-11T04:29:56;232.73;;;106.50;;
68812;SDS011;55808;48.112;11.552;2023-02-11T04:32:22;215.27;;;102.40;;
68812;SDS011;55808;48.112;11.552;2023-02-11T04:34:47;218.03;;;103.47;;
68812;SDS011;55808;48.112;11.552;2023-02-11T04:37:13;225.63;;;106.90;;
68812;SDS011;55808;48.112;11.552;2023-02-11T04:39:39;228.35;;;106.07;;
68812;SDS011;55808;48.112;11.552;2023-02-11T04:42:05;221.93;;;104.60;;
68812;SDS011;55808;48.112;11.552;2023-02-11T04:44:31;228.70;;;105.88;;
68812;SDS011;55808;48.112;11.552;2023-02-11T04:46:56;232.27;;;104.83;;
68812;SDS011;55808;48.112;11.552;2023-02-11T04:49:22;223.60;;;104.40;;
68812;SDS011;55808;48.112;11.552;2023-02-11T04:51:48;234.40;;;107.35;;
68812;SDS011;55808;48.112;11.552;2023-02-11T04:54:14;214.80;;;103.97;;
68812;SDS011;55808;48.112;11.552;2023-02-11T04:56:40;225.70;;;105.43;;
68812;SDS011;55808;48.112;11.552;2023-02-11T04:59:05;221.80;;;105.53;;
68812;SDS011;55808;48.112;11.552;2023-02-11T05:01:31;226.47;;;106.13;;
68812;SDS011;55808;48.112;11.552;2023-02-11T05:03:57;244.87;;;107.30;;
68812;SDS011;55808;48.112;11.552;2023-02-11T05:06:23;217.37;;;103.77;;
68812;SDS011;55808;48.112;11.552;2023-02-11T05:08:48;222.17;;;106.23;;
68812;SDS011;55808;48.112;11.552;2023-02-11T05:11:18;252.93;;;111.30;;
68812;SDS011;55808;48.112;11.552;2023-02-11T05:13:46;221.68;;;104.95;;
68812;SDS011;55808;48.112;11.552;2023-02-11T05:16:11;240.10;;;108.93;;
68812;SDS011;55808;48.112;11.552;2023-02-11T05:18:38;227.32;;;104.85;;
68812;SDS011;55808;48.112;11.552;2023-02-11T05:21:08;255.00;;;110.28;;
68812;SDS011;55808;48.112;11.552;2023-02-11T05:23:35;228.15;;;106.45;;
68812;SDS011;55808;48.112;11.552;2023-02-11T05:26:02;243.27;;;109.07;;
68812;SDS011;55808;48.112;11.552;2023-02-11T05:28:28;230.43;;;103.70;;
68812;SDS011;55808;48.112;11.552;2023-02-11T05:30:54;230.27;;;104.37;;
68812;SDS011;55808;48.112;11.552;2023-02-11T05:33:20;228.27;;;105.78;;
68812;SDS011;55808;48.112;11.552;2023-02-11T05:35:45;230.63;;;106.97;;
68812;SDS011;55808;48.112;11.552;2023-02-11T05:38:11;237.43;;;106.77;;
68812;SDS011;55808;48.112;11.552;2023-02-11T05:40:37;218.80;;;102.90;;
68812;SDS011;55808;48.112;11.552;2023-02-11T05:43:02;225.03;;;104.53;;
68812;SDS011;55808;48.112;11.552;2023-02-11T05:45:28;224.13;;;103.60;;
68812;SDS011;55808;48.112;11.552;2023-02-11T05:47:54;230.87;;;106.50;;
68812;SDS011;55808;48.112;11.552;2023-02-11T05:50:20;241.70;;;108.93;;
68812;SDS011;55808;48.112;11.552;2023-02-11T05:52:46;251.60;;;111.23;;
68812;SDS011;55808;48.112;11.552;2023-02-11T05:55:11;232.90;;;108.43;;
68812;SDS011;55808;48.112;11.552;2023-02-11T05:57:37;232.50;;;107.37;;
68812;SDS011;55808;48.112;11.552;2023-02-11T06:00:03;237.10;;;107.70;;
68812;SDS011;55808;48.112;11.552;2023-02-11T06:02:29;248.30;;;110.40;;
68812;SDS011;55808;48.112;11.552;2023-02-11T06:04:55;244.60;;;108.70;;
68812;SDS011;55808;48.112;11.552;2023-02-11T06:07:20;283.73;;;117.60;;
68812;SDS011;55808;48.112;11.552;2023-02-11T06:09:46;247.70;;;111.83;;
68812;SDS011;55808;48.112;11.552;2023-02-11T06:12:11;241.07;;;109.80;;
68812;SDS011;55808;48.112;11.552;2023-02-11T06:14:37;232.77;;;107.70;;
68812;SDS011;55808;48.112;11.552;2023-02-11T06:17:03;247.50;;;112.57;;
68812;SDS011;55808;48.112;11.552;2023-02-11T06:19:28;264.67;;;115.13;;
68812;SDS011;55808;48.112;11.552;2023-02-11T06:21:55;240.07;;;109.05;;
68812;SDS011;55808;48.112;11.552;2023-02-11T06:24:21;276.23;;;115.90;;
68812;SDS011;55808;48.112;11.552;2023-02-11T06:26:47;255.83;;;111.30;;
68812;SDS011;55808;48.112;11.552;2023-02-11T06:29:13;266.90;;;112.23;;
68812;SDS011;55808;48.112;11.552;2023-02-11T06:31:38;261.20;;;110.43;;
68812;SDS011;55808;48.112;11.552;2023-02-11T06:34:05;257.48;;;111.32;;
68812;SDS011;55808;48.112;11.552;2023-02-11T06:36:34;236.52;;;105.88;;
68812;SDS011;55808;48.112;11.552;2023-02-11T06:39:00;239.68;;;108.22;;
68812;SDS011;55808;48.112;11.552;2023-02-11T06:41:26;257.92;;;111.43;;
68812;SDS011;55808;48.112;11.552;2023-02-11T06:43:52;243.40;;;108.00;;
68812;SDS011;55808;48.112;11.552;2023-02-11T06:46:18;265.23;;;119.37;;
68812;SDS011;55808;48.112;11.552;2023-02-11T06:48:43;230.15;;;104.95;;
68812;SDS011;55808;48.112;11.552;2023-02-11T06:51:10;229.27;;;106.40;;
68812;SDS011;55808;48.112;11.552;2023-02-11T06:53:38;242.30;;;107.50;;
68812;SDS011;55808;48.112;11.552;2023-02-11T06:56:06;295.63;;;120.57;;
68812;SDS011;55808;48.112;11.552;2023-02-11T06:58:34;232.18;;;106.35;;
68812;SDS011;55808;48.112;11.552;2023-02-11T07:01:03;264.17;;;112.22;;
68812;SDS011;55808;48.112;11.552;2023-02-11T07:03:31;254.27;;;110.97;;
68812;SDS011;55808;48.112;11.552;2023-02-11T07:05:58;282.90;;;115.97;;
68812;SDS011;55808;48.112;11.552;2023-02-11T07:08:24;261.07;;;110.57;;
68812;SDS011;55808;48.112;11.552;2023-02-11T07:10:50;255.00;;;108.43;;
68812;SDS011;55808;48.112;11.552;2023-02-11T07:13:15;239.10;;;108.67;;
68812;SDS011;55808;48.112;11.552;2023-02-11T07:15:41;256.63;;;111.23;;
68812;SDS011;55808;48.112;11.552;2023-02-11T07:18:06;260.57;;;112.90;;
68812;SDS011;55808;48.112;11.552;2023-02-11T07:20:32;254.87;;;111.20;;
68812;SDS011;55808;48.112;11.552;2023-02-11T07:22:58;243.10;;;108.00;;
68812;SDS011;55808;48.112;11.552;2023-02-11T07:25:24;252.43;;;110.50;;
68812;SDS011;55808;48.112;11.552;2023-02-11T07:27:50;271.30;;;114.50;;
68812;SDS011;55808;48.112;11.552;2023-02-11T07:30:15;230.40;;;105.33;;
68812;SDS011;55808;48.112;11.552;2023-02-11T07:32:41;247.33;;;108.33;;
68812;SDS011;55808;48.112;11.552;2023-02-11T07:35:07;230.73;;;106.47;;
68812;SDS011;55808;48.112;11.552;2023-02-11T07:37:33;239.97;;;106.80;;
68812;SDS011;55808;48.112;11.552;2023-02-11T07:39:59;253.50;;;110.55;;
68812;SDS011;55808;48.112;11.552;2023-02-11T07:42:24;230.97;;;104.17;;
68812;SDS011;55808;48.112;11.552;2023-02-11T07:44:50;244.93;;;108.53;;
68812;SDS011;55808;48.112;11.552;2023-02-11T07:47:16;244.40;;;107.00;;
68812;SDS011;55808;48.112;11.552;2023-02-11T07:49:41;236.80;;;106.40;;
68812;SDS011;55808;48.112;11.552;2023-02-11T07:52:08;230.25;;;104.03;;
68812;SDS011;55808;48.112;11.552;2023-02-11T07:54:33;225.37;;;103.13;;
68812;SDS011;55808;48.112;11.552;2023-02-11T07:56:59;239.10;;;105.47;;
68812;SDS011;55808;48.112;11.552;2023-02-11T07:59:24;242.70;;;107.47;;
68812;SDS011;55808;48.112;11.552;2023-02-11T08:01:51;241.48;;;105.68;;
68812;SDS011;55808;48.112;11.552;2023-02-11T08:04:17;238.33;;;106.27;;
68812;SDS011;55808;48.112;11.552;2023-02-11T08:06:42;244.43;;;107.90;;
68812;SDS011;55808;48.112;11.552;2023-02-11T08:09:10;238.13;;;108.00;;
68812;SDS011;55808;48.112;11.552;2023-02-11T08:11:39;247.48;;;118.00;;
68812;SDS011;55808;48.112;11.552;2023-02-11T08:14:05;249.47;;;106.73;;
68812;SDS011;55808;48.112;11.552;2023-02-11T08:16:31;243.83;;;108.07;;
68812;SDS011;55808;48.112;11.552;2023-02-11T08:19:00;223.85;;;105.65;;
68812;SDS011;55808;48.112;11.552;2023-02-11T08:21:28;219.95;;;103.20;;
68812;SDS011;55808;48.112;11.552;2023-02-11T08:23:54;265.60;;;111.33;;
68812;SDS011;55808;48.112;11.552;2023-02-11T08:26:24;249.57;;;109.00;;
68812;SDS011;55808;48.112;11.552;2023-02-11T08:28:53;240.23;;;107.30;;
68812;SDS011;55808;48.112;11.552;2023-02-11T08:31:20;256.45;;;108.68;;
68812;SDS011;55808;48.112;11.552;2023-02-11T08:33:51;242.90;;;109.28;;
68812;SDS011;55808;48.112;11.552;2023-02-11T08:36:22;262.98;;;108.53;;
68812;SDS011;55808;48.112;11.552;2023-02-11T08:38:49;241.60;;;107.43;;
68812;SDS011;55808;48.112;11.552;2023-02-11T08:41:15;293.80;;;113.00;;
68812;SDS011;55808;48.112;11.552;2023-02-11T08:43:42;245.55;;;105.07;;
68812;SDS011;55808;48.112;11.552;2023-02-11T08:46:09;287.60;;;115.65;;
68812;SDS011;55808;48.112;11.552;2023-02-11T08:48:38;265.52;;;111.10;;
68812;SDS011;55808;48.112;11.552;2023-02-11T08:51:07;274.03;;;109.73;;
68812;SDS011;55808;48.112;11.552;2023-02-11T08:53:35;291.70;;;113.65;;
68812;SDS011;55808;48.112;11.552;2023-02-11T08:56:01;290.63;;;111.13;;
68812;SDS011;55808;48.112;11.552;2023-02-11T08:58:27;272.27;;;109.75;;
68812;SDS011;55808;48.112;11.552;2023-02-11T09:00:53;277.87;;;109.70;;
68812;SDS011;55808;48.112;11.552;2023-02-11T09:03:18;273.63;;;110.50;;
68812;SDS011;55808;48.112;11.552;2023-02-11T09:05:45;302.37;;;116.20;;
68812;SDS011;55808;48.112;11.552;2023-02-11T09:08:12;268.00;;;111.28;;
68812;SDS011;55808;48.112;11.552;2023-02-11T09:10:38;284.10;;;113.95;;
68812;SDS011;55808;48.112;11.552;2023-02-11T09:13:04;295.93;;;113.63;;
68812;SDS011;55808;48.112;11.552;2023-02-11T09:15:31;281.50;;;112.45;;
68812;SDS011;55808;48.112;11.552;2023-02-11T09:17:57;267.52;;;109.15;;
68812;SDS011;55808;48.112;11.552;2023-02-11T09:20:23;275.70;;;110.50;;
68812;SDS011;55808;48.112;11.552;2023-02-11T09:22:50;289.63;;;113.55;;
68812;SDS011;55808;48.112;11.552;2023-02-11T09:25:17;295.25;;;116.90;;
68812;SDS011;55808;48.112;11.552;2023-02-11T09:27:42;294.37;;;116.60;;
68812;SDS011;55808;48.112;11.552;2023-02-11T09:30:08;290.30;;;114.90;;
68812;SDS011;55808;48.112;11.552;2023-02-11T09:32:34;280.17;;;111.85;;
68812;SDS011;55808;48.112;11.552;2023-02-11T09:35:00;279.10;;;111.40;;
68812;SDS011;55808;48.112;11.552;2023-02-11T09:37:25;272.60;;;108.67;;
68812;SDS011;55808;48.112;11.552;2023-02-11T09:39:51;271.73;;;110.90;;
68812;SDS011;55808;48.112;11.552;2023-02-11T09:45:01;272.83;;;108.57;;
68812;SDS011;55808;48.112;11.552;2023-02-11T09:47:31;266.60;;;109.72;;
68812;SDS011;55808;48.112;11.552;2023-02-11T09:50:17;275.73;;;110.35;;
68812;SDS011;55808;48.112;11.552;2023-02-11T09:55:28;262.80;;;108.65;;
68812;SDS011;55808;48.112;11.552;2023-02-11T09:57:59;269.17;;;108.55;;
68812;SDS011;55808;48.112;11.552;2023-02-11T10:00:32;267.05;;;108.47;;
68812;SDS011;55808;48.112;11.552;2023-02-11T10:22:18;296.08;;;114.75;;
68812;SDS011;55808;48.112;11.552;2023-02-11T10:25:15;296.70;;;121.63;;
68812;SDS011;55808;48.112;11.552;2023-02-11T10:27:44;294.75;;;114.90;;
68812;SDS011;55808;48.112;11.552;2023-02-11T10:32:48;310.02;;;117.40;;
68812;SDS011;55808;48.112;11.552;2023-02-11T10:35:35;313.10;;;116.40;;
68812;SDS011;55808;48.112;11.552;2023-02-11T10:38:04;307.55;;;116.85;;
68812;SDS011;55808;48.112;11.552;2023-02-11T10:40:30;312.25;;;119.82;;
68812;SDS011;55808;48.112;11.552;2023-02-11T10:42:57;318.25;;;120.97;;
68812;SDS011;55808;48.112;11.552;2023-02-11T10:53:38;319.45;;;120.00;;
68812;SDS011;55808;48.112;11.552;2023-02-11T10:56:05;333.73;;;121.50;;
68812;SDS011;55808;48.112;11.552;2023-02-11T10:59:06;337.27;;;125.85;;
68812;SDS011;55808;48.112;11.552;2023-02-11T11:01:45;339.58;;;127.45;;
68812;SDS011;55808;48.112;11.552;2023-02-11T11:06:54;322.83;;;120.22;;
68812;SDS011;55808;48.112;11.552;2023-02-11T11:09:27;331.92;;;121.32;;
68812;SDS011;55808;48.112;11.552;2023-02-11T11:11:54;344.23;;;123.10;;
68812;SDS011;55808;48.112;11.552;2023-02-11T11:14:20;325.27;;;120.82;;
68812;SDS011;55808;48.112;11.552;2023-02-11T11:16:52;318.65;;;118.50;;
68812;SDS011;55808;48.112;11.552;2023-02-11T11:19:23;367.80;;;129.57;;
68812;SDS011;55808;48.112;11.552;2023-02-11T11:21:53;332.83;;;119.30;;
68812;SDS011;55808;48.112;11.552;2023-02-11T11:24:43;323.73;;;120.95;;
68812;SDS011;55808;48.112;11.552;2023-02-11T11:27:16;328.35;;;120.97;;
68812;SDS011;55808;48.112;11.552;2023-02-11T11:29:46;317.20;;;120.30;;
68812;SDS011;55808;48.112;11.552;2023-02-11T11:34:52;347.70;;;124.03;;
68812;SDS011;55808;48.112;11.552;2023-02-11T11:37:31;353.15;;;127.55;;
68812;SDS011;55808;48.112;11.552;2023-02-11T11:42:36;327.90;;;122.88;;
68812;SDS011;55808;48.112;11.552;2023-02-11T11:45:24;340.50;;;127.53;;
68812;SDS011;55808;48.112;11.552;2023-02-11T11:47:51;337.55;;;126.50;;
68812;SDS011;55808;48.112;11.552;2023-02-11T11:50:42;346.27;;;130.90;;
68812;SDS011;55808;48.112;11.552;2023-02-11T11:56:11;377.95;;;134.65;;
68812;SDS011;55808;48.112;11.552;2023-02-11T11:58:42;363.83;;;135.05;;
68812;SDS011;55808;48.112;11.552;2023-02-11T12:17:13;355.02;;;130.07;;
68812;SDS011;55808;48.112;11.552;2023-02-11T12:25:45;347.55;;;128.63;;
68812;SDS011;55808;48.112;11.552;2023-02-11T12:31:05;350.65;;;124.15;;
68812;SDS011;55808;48.112;11.552;2023-02-11T12:59:29;353.40;;;139.15;;
68812;SDS011;55808;48.112;11.552;2023-02-11T13:05:13;350.60;;;121.60;;
68812;SDS011;55808;48.112;11.552;2023-02-11T13:08:10;341.13;;;120.85;;
68812;SDS011;55808;48.112;11.552;2023-02-11T13:10:40;357.17;;;125.68;;
68812;SDS011;55808;48.112;11.552;2023-02-11T13:13:13;345.30;;;121.38;;
68812;SDS011;55808;48.112;11.552;2023-02-11T13:15:52;353.42;;;124.53;;
68812;SDS011;55808;48.112;11.552;2023-02-11T13:21:23;343.80;;;127.60;;
68812;SDS011;55808;48.112;11.552;2023-02-11T13:32:14;372.13;;;134.17;;
68812;SDS011;55808;48.112;11.552;2023-02-11T13:37:18;408.03;;;150.83;;
68812;SDS011;55808;48.112;11.552;2023-02-11T13:40:00;407.80;;;159.53;;
68812;SDS011;55808;48.112;11.552;2023-02-11T13:42:28;417.80;;;161.73;;
68812;SDS011;55808;48.112;11.552;2023-02-11T13:44:55;403.10;;;162.87;;
68812;SDS011;55808;48.112;11.552;2023-02-11T13:47:25;402.70;;;160.37;;
68812;SDS011;55808;48.112;11.552;2023-02-11T13:49:54;411.13;;;165.83;;
68812;SDS011;55808;48.112;11.552;2023-02-11T13:52:24;398.53;;;156.97;;
68812;SDS011;55808;48.112;11.552;2023-02-11T13:54:51;392.83;;;153.00;;
68812;SDS011;55808;48.112;11.552;2023-02-11T13:59:51;390.27;;;147.63;;
68812;SDS011;55808;48.112;11.552;2023-02-11T14:02:23;381.23;;;141.37;;
68812;SDS011;55808;48.112;11.552;2023-02-11T14:08:12;368.40;;;131.98;;
68812;SDS011;55808;48.112;11.552;2023-02-11T14:11:03;369.00;;;131.13;;
68812;SDS011;55808;48.112;11.552;2023-02-11T14:17:40;356.88;;;131.00;;
68812;SDS011;55808;48.112;11.552;2023-02-11T14:22:02;355.73;;;126.00;;
68812;SDS011;55808;48.112;11.552;2023-02-11T14:27:04;356.13;;;123.47;;
68812;SDS011;55808;48.112;11.552;2023-02-11T14:40:38;349.20;;;122.28;;
68812;SDS011;55808;48.112;11.552;2023-02-11T14:43:18;347.25;;;124.88;;
68812;SDS011;55808;48.112;11.552;2023-02-11T14:45:55;354.20;;;125.00;;
68812;SDS011;55808;48.112;11.552;2023-02-11T14:48:26;357.50;;;125.30;;
68812;SDS011;55808;48.112;11.552;2023-02-11T14:51:00;359.58;;;124.53;;
68812;SDS011;55808;48.112;11.552;2023-02-11T14:53:30;339.35;;;120.60;;
68812;SDS011;55808;48.112;11.552;2023-02-11T14:55:57;351.13;;;124.70;;
68812;SDS011;55808;48.112;11.552;2023-02-11T15:00:51;339.10;;;121.32;;
68812;SDS011;55808;48.112;11.552;2023-02-11T15:03:35;353.08;;;125.40;;
68812;SDS011;55808;48.112;11.552;2023-02-11T15:08:43;333.35;;;120.78;;
68812;SDS011;55808;48.112;11.552;2023-02-11T15:11:13;342.65;;;119.40;;
68812;SDS011;55808;48.112;11.552;2023-02-11T15:13:40;347.67;;;122.18;;
68812;SDS011;55808;48.112;11.552;2023-02-11T15:16:16;347.20;;;121.13;;
68812;SDS011;55808;48.112;11.552;2023-02-11T15:18:48;344.38;;;123.03;;
68812;SDS011;55808;48.112;11.552;2023-02-11T15:21:20;345.38;;;121.85;;
68812;SDS011;55808;48.112;11.552;2023-02-11T15:23:58;343.27;;;122.38;;
68812;SDS011;55808;48.112;11.552;2023-02-11T15:26:25;358.58;;;125.53;;
68812;SDS011;55808;48.112;11.552;2023-02-11T15:28:51;357.70;;;124.30;;
68812;SDS011;55808;48.112;11.552;2023-02-11T15:31:18;331.20;;;119.60;;
68812;SDS011;55808;48.112;11.552;2023-02-11T15:33:47;336.00;;;119.35;;
68812;SDS011;55808;48.112;11.552;2023-02-11T15:36:13;345.57;;;124.20;;
68812;SDS011;55808;48.112;11.552;2023-02-11T15:38:40;346.02;;;127.18;;
68812;SDS011;55808;48.112;11.552;2023-02-11T15:41:32;337.30;;;122.50;;
68812;SDS011;55808;48.112;11.552;2023-02-11T15:44:01;347.35;;;125.80;;
68812;SDS011;55808;48.112;11.552;2023-02-11T15:46:31;359.67;;;127.37;;
68812;SDS011;55808;48.112;11.552;2023-02-11T15:49:04;339.13;;;123.47;;
68812;SDS011;55808;48.112;11.552;2023-02-11T15:51:32;353.73;;;124.82;;
68812;SDS011;55808;48.112;11.552;2023-02-11T15:54:07;356.55;;;126.85;;
68812;SDS011;55808;48.112;11.552;2023-02-11T15:56:46;340.90;;;124.78;;
68812;SDS011;55808;48.112;11.552;2023-02-11T15:59:15;351.80;;;125.50;;
68812;SDS011;55808;48.112;11.552;2023-02-11T16:01:52;353.27;;;128.45;;
68812;SDS011;55808;48.112;11.552;2023-02-11T16:04:20;333.75;;;121.28;;
68812;SDS011;55808;48.112;11.552;2023-02-11T16:06:48;356.70;;;126.18;;
68812;SDS011;55808;48.112;11.552;2023-02-11T16:14:20;334.27;;;122.13;;
68812;SDS011;55808;48.112;11.552;2023-02-11T16:17:11;337.38;;;121.80;;
68812;SDS011;55808;48.112;11.552;2023-02-11T16:19:47;349.70;;;127.70;;
68812;SDS011;55808;48.112;11.552;2023-02-11T16:22:16;341.25;;;126.80;;
68812;SDS011;55808;48.112;11.552;2023-02-11T16:24:45;349.33;;;128.50;;
68812;SDS011;55808;48.112;11.552;2023-02-11T16:27:27;344.27;;;129.80;;
68812;SDS011;55808;48.112;11.552;2023-02-11T16:30:05;333.75;;;125.57;;
68812;SDS011;55808;48.112;11.552;2023-02-11T16:32:45;347.48;;;127.70;;
68812;SDS011;55808;48.112;11.552;2023-02-11T16:35:11;350.87;;;127.67;;
68812;SDS011;55808;48.112;11.552;2023-02-11T16:37:38;353.98;;;130.27;;
68812;SDS011;55808;48.112;11.552;2023-02-11T16:40:04;351.50;;;125.20;;
68812;SDS011;55808;48.112;11.552;2023-02-11T16:42:30;361.75;;;129.52;;
68812;SDS011;55808;48.112;11.552;2023-02-11T16:44:56;360.50;;;131.00;;
68812;SDS011;55808;48.112;11.552;2023-02-11T16:47:22;354.67;;;126.53;;
68812;SDS011;55808;48.112;11.552;2023-02-11T16:49:50;358.00;;;126.97;;
68812;SDS011;55808;48.112;11.552;2023-02-11T16:52:16;360.30;;;126.18;;
68812;SDS011;55808;48.112;11.552;2023-02-11T16:54:44;338.30;;;124.22;;
68812;SDS011;55808;48.112;11.552;2023-02-11T16:57:13;355.30;;;129.97;;
68812;SDS011;55808;48.112;11.552;2023-02-11T16:59:39;343.25;;;125.40;;
68812;SDS011;55808;48.112;11.552;2023-02-11T17:02:07;329.03;;;120.20;;
68812;SDS011;55808;48.112;11.552;2023-02-11T17:04:40;340.08;;;123.45;;
68812;SDS011;55808;48.112;11.552;2023-02-11T17:07:06;359.92;;;127.10;;
68812;SDS011;55808;48.112;11.552;2023-02-11T17:09:32;342.80;;;124.13;;
68812;SDS011;55808;48.112;11.552;2023-02-11T17:11:57;326.63;;;122.63;;